Aérodrome :
LOGIN :

S'inscrire | Disclaimer

   EN    FR    IT 

 










Légende :    VFR   VFR Marginal   IFR   IFR Intensif   IFR Très Intensif
Visi : 
Plafond : 
>= 8 km
>= 3000ft
5 à 8 km
1000 à 3000 ft
1500m à 5 km
500 à 1000 ft
800 à 1500m
200 à 500 ft
< 800m
< 200 ft
Symboles :   Orages  Brouillard  Fortes neiges  Fortes précipitations  Vent > 20 kt
SIGMETs :   Divers  Orages  Givrage  Turbulence  Onde Orograph.  Cendres Volcan.







- Altitude de l'aérodrome : 195 ft
- Voir les cartes d'approche


LFMY - Salon de Provence

DERNIER METAR :
  • 230900Z AUTO 33012KT 270V350 CAVOK 20/13 Q1016 TEMPO 32017G27KT

METARs EXPIRÉS :
  • 230830Z AUTO 32012KT 280V350 CAVOK 19/13 Q1016 BECMG 32015G25KT
  • 230800Z AUTO 33014KT CAVOK 18/13 Q1016 BECMG 32015G25KT
  • 230730Z AUTO 33014KT 9999 ////// 18/13 Q1016
  • 230700Z AUTO 31011KT CAVOK 17/13 Q1016 BECMG 32015G25KT
  • 230630Z AUTO 31010KT 270V330 CAVOK 16/12 Q1016 BECMG 32015G25KT

TAF TAF LFMY
Valide du 23 à 09h jusqu'au 24 à 09h UTC


230800Z 2309/2409 31012KT CAVOK
TEMPO 2309/2320 32017G27KT
BECMG 2400/2403 VRB02KT
Pas de NOTAMs connus pour ce terrain.



MET'MAP, la Météo Aéronautique d'un coup d'oeil ! - Copyright ORBIFLY Décembre 2007 - Disclaimer

ORBIFLY MET'MAP TEAM :

Programmation & Développement : Alexandra Zaïnal
Conception & Développement : Baudouin d'Aumeries
Co-Programmation & Développement : Marc-Olivier Méhu
Soutien technique & logistique : Manuel Goepfert

Contact : metmap@orbifly.com




SOURCES & CREDITS :

   NOAA